sensor_id;sensor_type;location;lat;lon;timestamp;pressure;altitude;pressure_sealevel;temperature;humidity
10261;BME280;5175;42.606;23.388;2023-09-12T00:00:22;93976.50;;;13.82;91.67
10261;BME280;5175;42.606;23.388;2023-09-12T00:02:49;93974.84;;;13.87;92.29
10261;BME280;5175;42.606;23.388;2023-09-12T00:05:15;93962.28;;;13.82;93.48
10261;BME280;5175;42.606;23.388;2023-09-12T00:07:42;93965.22;;;13.67;94.04
10261;BME280;5175;42.606;23.388;2023-09-12T00:10:09;93971.91;;;13.51;96.03
10261;BME280;5175;42.606;23.388;2023-09-12T00:12:36;93963.84;;;13.69;94.74
10261;BME280;5175;42.606;23.388;2023-09-12T00:15:03;93959.22;;;13.56;96.01
10261;BME280;5175;42.606;23.388;2023-09-12T00:17:32;93969.63;;;13.76;96.11
10261;BME280;5175;42.606;23.388;2023-09-12T00:19:58;93971.13;;;13.50;100.00
10261;BME280;5175;42.606;23.388;2023-09-12T00:22:25;93969.69;;;13.71;100.00
10261;BME280;5175;42.606;23.388;2023-09-12T00:24:52;93964.72;;;13.65;100.00
10261;BME280;5175;42.606;23.388;2023-09-12T00:27:18;93975.06;;;13.71;100.00
10261;BME280;5175;42.606;23.388;2023-09-12T00:29:45;93980.78;;;13.84;100.00
10261;BME280;5175;42.606;23.388;2023-09-12T00:32:12;93989.97;;;13.96;99.49
10261;BME280;5175;42.606;23.388;2023-09-12T00:34:40;93983.13;;;14.04;94.97
10261;BME280;5175;42.606;23.388;2023-09-12T00:37:06;93982.81;;;14.05;93.92
10261;BME280;5175;42.606;23.388;2023-09-12T00:39:33;93982.38;;;14.17;93.95
10261;BME280;5175;42.606;23.388;2023-09-12T00:42:00;93979.09;;;14.20;95.75
10261;BME280;5175;42.606;23.388;2023-09-12T00:44:26;93977.94;;;14.07;96.79
10261;BME280;5175;42.606;23.388;2023-09-12T00:46:54;93978.75;;;14.08;96.15
10261;BME280;5175;42.606;23.388;2023-09-12T00:49:23;93983.25;;;14.26;95.48
10261;BME280;5175;42.606;23.388;2023-09-12T00:51:53;93981.06;;;14.28;93.51
10261;BME280;5175;42.606;23.388;2023-09-12T00:54:21;93981.94;;;14.10;91.60
10261;BME280;5175;42.606;23.388;2023-09-12T00:56:47;93986.63;;;14.04;88.94
10261;BME280;5175;42.606;23.388;2023-09-12T00:59:17;93985.50;;;14.05;89.71
10261;BME280;5175;42.606;23.388;2023-09-12T01:01:44;93987.47;;;14.00;88.05
10261;BME280;5175;42.606;23.388;2023-09-12T01:04:11;93982.38;;;14.17;86.02
10261;BME280;5175;42.606;23.388;2023-09-12T01:06:38;93985.75;;;14.22;87.36
10261;BME280;5175;42.606;23.388;2023-09-12T01:09:06;93990.19;;;14.13;88.36
10261;BME280;5175;42.606;23.388;2023-09-12T01:11:33;93994.28;;;14.11;89.37
10261;BME280;5175;42.606;23.388;2023-09-12T01:14:00;93986.69;;;13.99;91.78
10261;BME280;5175;42.606;23.388;2023-09-12T01:16:27;93989.00;;;14.06;88.49
10261;BME280;5175;42.606;23.388;2023-09-12T01:18:53;93996.91;;;13.97;87.67
10261;BME280;5175;42.606;23.388;2023-09-12T01:21:38;93992.97;;;13.76;92.25
10261;BME280;5175;42.606;23.388;2023-09-12T01:24:24;93989.91;;;13.82;92.13
10261;BME280;5175;42.606;23.388;2023-09-12T01:29:33;93999.25;;;13.85;94.77
10261;BME280;5175;42.606;23.388;2023-09-12T01:32:01;93993.34;;;13.69;97.22
10261;BME280;5175;42.606;23.388;2023-09-12T01:34:29;93995.03;;;13.47;99.78
10261;BME280;5175;42.606;23.388;2023-09-12T01:36:56;93996.78;;;13.38;99.77
10261;BME280;5175;42.606;23.388;2023-09-12T01:39:22;93998.72;;;13.51;97.32
10261;BME280;5175;42.606;23.388;2023-09-12T01:41:50;93992.81;;;13.35;98.79
10261;BME280;5175;42.606;23.388;2023-09-12T01:44:19;93995.84;;;13.47;98.58
10261;BME280;5175;42.606;23.388;2023-09-12T01:46:50;93993.81;;;13.39;99.45
10261;BME280;5175;42.606;23.388;2023-09-12T01:49:19;94007.94;;;13.45;98.03
10261;BME280;5175;42.606;23.388;2023-09-12T01:51:47;94005.44;;;13.48;96.14
10261;BME280;5175;42.606;23.388;2023-09-12T01:54:16;94004.44;;;13.44;94.45
10261;BME280;5175;42.606;23.388;2023-09-12T01:56:43;93981.19;;;13.21;94.84
10261;BME280;5175;42.606;23.388;2023-09-12T01:59:10;94006.63;;;13.24;95.48
10261;BME280;5175;42.606;23.388;2023-09-12T02:01:37;94004.00;;;13.18;95.86
10261;BME280;5175;42.606;23.388;2023-09-12T02:04:05;94004.88;;;13.14;95.76
10261;BME280;5175;42.606;23.388;2023-09-12T02:06:34;94011.31;;;13.13;95.81
10261;BME280;5175;42.606;23.388;2023-09-12T02:09:00;94008.88;;;12.93;98.20
10261;BME280;5175;42.606;23.388;2023-09-12T02:11:28;94000.91;;;12.88;97.46
10261;BME280;5175;42.606;23.388;2023-09-12T02:13:55;94008.13;;;12.87;96.93
10261;BME280;5175;42.606;23.388;2023-09-12T02:16:22;94017.84;;;12.83;97.66
10261;BME280;5175;42.606;23.388;2023-09-12T02:18:48;94008.19;;;12.82;98.16
10261;BME280;5175;42.606;23.388;2023-09-12T02:21:16;94003.06;;;12.62;100.00
10261;BME280;5175;42.606;23.388;2023-09-12T02:23:43;94007.00;;;12.70;99.46
10261;BME280;5175;42.606;23.388;2023-09-12T02:26:10;94006.38;;;12.78;98.23
10261;BME280;5175;42.606;23.388;2023-09-12T02:28:37;94005.75;;;12.62;98.59
10261;BME280;5175;42.606;23.388;2023-09-12T02:31:09;94011.91;;;12.63;98.46
10261;BME280;5175;42.606;23.388;2023-09-12T02:33:37;93995.84;;;12.10;100.00
10261;BME280;5175;42.606;23.388;2023-09-12T02:36:04;94013.75;;;12.38;100.00
10261;BME280;5175;42.606;23.388;2023-09-12T02:38:32;94009.91;;;12.49;100.00
10261;BME280;5175;42.606;23.388;2023-09-12T02:40:59;94008.94;;;12.64;100.00
10261;BME280;5175;42.606;23.388;2023-09-12T02:43:27;94008.59;;;12.71;100.00
10261;BME280;5175;42.606;23.388;2023-09-12T02:45:54;94000.34;;;12.67;100.00
10261;BME280;5175;42.606;23.388;2023-09-12T02:48:20;94007.63;;;12.62;100.00
10261;BME280;5175;42.606;23.388;2023-09-12T02:50:47;94008.03;;;12.50;100.00
10261;BME280;5175;42.606;23.388;2023-09-12T02:53:14;94006.63;;;12.57;100.00
10261;BME280;5175;42.606;23.388;2023-09-12T02:55:42;94016.38;;;12.43;100.00
10261;BME280;5175;42.606;23.388;2023-09-12T02:58:09;94006.53;;;12.39;100.00
10261;BME280;5175;42.606;23.388;2023-09-12T03:00:38;94012.66;;;12.44;100.00
10261;BME280;5175;42.606;23.388;2023-09-12T03:03:04;94005.22;;;12.36;100.00
10261;BME280;5175;42.606;23.388;2023-09-12T03:05:31;94009.22;;;12.39;99.31
10261;BME280;5175;42.606;23.388;2023-09-12T03:07:58;94013.75;;;12.38;99.38
10261;BME280;5175;42.606;23.388;2023-09-12T03:10:25;94012.75;;;12.34;100.00
10261;BME280;5175;42.606;23.388;2023-09-12T03:12:53;94008.72;;;12.37;100.00
10261;BME280;5175;42.606;23.388;2023-09-12T03:15:19;94003.56;;;12.40;99.49
10261;BME280;5175;42.606;23.388;2023-09-12T03:17:46;94001.66;;;12.17;100.00
10261;BME280;5175;42.606;23.388;2023-09-12T03:20:13;94004.38;;;12.12;100.00
10261;BME280;5175;42.606;23.388;2023-09-12T03:22:40;94012.06;;;12.24;100.00
10261;BME280;5175;42.606;23.388;2023-09-12T03:25:07;94009.88;;;12.26;100.00
10261;BME280;5175;42.606;23.388;2023-09-12T03:27:33;94010.88;;;12.35;100.00
10261;BME280;5175;42.606;23.388;2023-09-12T03:30:02;94009.50;;;12.37;100.00
10261;BME280;5175;42.606;23.388;2023-09-12T03:32:29;94010.63;;;12.31;100.00
10261;BME280;5175;42.606;23.388;2023-09-12T03:34:56;94009.78;;;12.07;100.00
10261;BME280;5175;42.606;23.388;2023-09-12T03:37:23;94010.22;;;12.19;100.00
10261;BME280;5175;42.606;23.388;2023-09-12T03:39:52;94010.50;;;12.18;100.00
10261;BME280;5175;42.606;23.388;2023-09-12T03:42:19;94015.63;;;12.14;100.00
10261;BME280;5175;42.606;23.388;2023-09-12T03:44:46;94010.84;;;12.11;100.00
10261;BME280;5175;42.606;23.388;2023-09-12T03:47:14;94021.91;;;12.28;100.00
10261;BME280;5175;42.606;23.388;2023-09-12T03:49:40;94018.91;;;12.35;100.00
10261;BME280;5175;42.606;23.388;2023-09-12T03:52:07;94024.41;;;12.43;100.00
10261;BME280;5175;42.606;23.388;2023-09-12T03:54:34;94016.38;;;12.43;100.00
10261;BME280;5175;42.606;23.388;2023-09-12T03:57:00;94019.88;;;12.15;100.00
10261;BME280;5175;42.606;23.388;2023-09-12T03:59:27;94017.72;;;12.17;100.00
10261;BME280;5175;42.606;23.388;2023-09-12T04:01:54;94024.66;;;12.18;100.00
10261;BME280;5175;42.606;23.388;2023-09-12T04:04:22;94032.41;;;12.20;100.00
10261;BME280;5175;42.606;23.388;2023-09-12T04:06:48;94025.13;;;12.25;100.00
10261;BME280;5175;42.606;23.388;2023-09-12T04:09:15;94026.28;;;12.19;100.00
10261;BME280;5175;42.606;23.388;2023-09-12T04:11:42;94024.06;;;12.26;100.00
10261;BME280;5175;42.606;23.388;2023-09-12T04:14:09;94026.28;;;12.19;100.00
10261;BME280;5175;42.606;23.388;2023-09-12T04:16:36;94024.38;;;12.20;100.00
10261;BME280;5175;42.606;23.388;2023-09-12T04:19:03;94002.53;;;12.13;100.00
10261;BME280;5175;42.606;23.388;2023-09-12T04:21:31;94016.19;;;12.11;100.00
10261;BME280;5175;42.606;23.388;2023-09-12T04:23:58;94020.69;;;12.16;100.00
10261;BME280;5175;42.606;23.388;2023-09-12T04:26:24;94020.31;;;12.27;100.00
10261;BME280;5175;42.606;23.388;2023-09-12T04:28:51;94021.09;;;12.28;100.00
10261;BME280;5175;42.606;23.388;2023-09-12T04:31:18;94012.59;;;11.92;100.00
10261;BME280;5175;42.606;23.388;2023-09-12T04:33:44;94024.91;;;11.93;100.00
10261;BME280;5175;42.606;23.388;2023-09-12T04:36:11;94019.47;;;11.64;100.00
10261;BME280;5175;42.606;23.388;2023-09-12T04:38:39;94030.16;;;11.64;100.00
10261;BME280;5175;42.606;23.388;2023-09-12T04:41:06;94030.13;;;11.74;100.00
10261;BME280;5175;42.606;23.388;2023-09-12T04:43:32;94031.19;;;12.07;100.00
10261;BME280;5175;42.606;23.388;2023-09-12T04:45:59;94030.88;;;11.80;100.00
10261;BME280;5175;42.606;23.388;2023-09-12T04:48:26;94025.06;;;11.73;100.00
10261;BME280;5175;42.606;23.388;2023-09-12T04:50:53;94022.28;;;11.88;100.00
10261;BME280;5175;42.606;23.388;2023-09-12T04:53:19;94035.56;;;11.98;100.00
10261;BME280;5175;42.606;23.388;2023-09-12T04:55:48;94027.31;;;11.89;100.00
10261;BME280;5175;42.606;23.388;2023-09-12T04:58:14;94025.53;;;11.80;100.00
10261;BME280;5175;42.606;23.388;2023-09-12T05:00:41;94019.97;;;12.05;100.00
10261;BME280;5175;42.606;23.388;2023-09-12T05:03:08;94013.72;;;12.15;100.00
10261;BME280;5175;42.606;23.388;2023-09-12T05:05:35;94016.78;;;12.32;100.00
10261;BME280;5175;42.606;23.388;2023-09-12T05:08:03;94030.16;;;12.61;100.00
10261;BME280;5175;42.606;23.388;2023-09-12T05:10:30;94030.34;;;12.88;100.00
10261;BME280;5175;42.606;23.388;2023-09-12T05:12:58;94031.78;;;13.04;99.70
10261;BME280;5175;42.606;23.388;2023-09-12T05:15:24;94038.19;;;13.27;98.05
10261;BME280;5175;42.606;23.388;2023-09-12T05:17:51;94040.50;;;13.33;98.58
10261;BME280;5175;42.606;23.388;2023-09-12T05:20:18;94044.59;;;13.49;98.53
10261;BME280;5175;42.606;23.388;2023-09-12T05:22:44;94046.16;;;13.69;98.34
10261;BME280;5175;42.606;23.388;2023-09-12T05:25:11;94044.72;;;13.76;98.49
10261;BME280;5175;42.606;23.388;2023-09-12T05:27:38;94055.88;;;13.84;97.97
10261;BME280;5175;42.606;23.388;2023-09-12T05:30:07;94045.44;;;13.82;99.77
10261;BME280;5175;42.606;23.388;2023-09-12T05:32:34;94033.06;;;13.49;100.00
10261;BME280;5175;42.606;23.388;2023-09-12T05:35:02;94039.53;;;13.48;100.00
10261;BME280;5175;42.606;23.388;2023-09-12T05:37:28;94062.03;;;13.47;100.00
10261;BME280;5175;42.606;23.388;2023-09-12T05:39:55;94047.56;;;13.48;100.00
10261;BME280;5175;42.606;23.388;2023-09-12T05:42:22;94056.78;;;13.60;100.00
10261;BME280;5175;42.606;23.388;2023-09-12T05:44:49;94039.66;;;13.75;100.00
10261;BME280;5175;42.606;23.388;2023-09-12T05:47:20;94053.63;;;13.91;100.00
10261;BME280;5175;42.606;23.388;2023-09-12T05:49:47;94042.56;;;14.11;99.03
10261;BME280;5175;42.606;23.388;2023-09-12T05:52:14;94057.84;;;14.29;97.98
10261;BME280;5175;42.606;23.388;2023-09-12T05:54:41;94054.72;;;14.54;96.38
10261;BME280;5175;42.606;23.388;2023-09-12T05:57:09;94056.34;;;14.55;97.47
10261;BME280;5175;42.606;23.388;2023-09-12T05:59:37;94046.59;;;14.73;95.99
10261;BME280;5175;42.606;23.388;2023-09-12T06:02:04;94053.91;;;14.99;94.25
10261;BME280;5175;42.606;23.388;2023-09-12T06:04:35;94051.19;;;15.27;91.74
10261;BME280;5175;42.606;23.388;2023-09-12T06:07:02;94052.28;;;15.53;89.85
10261;BME280;5175;42.606;23.388;2023-09-12T06:09:29;94054.50;;;15.73;87.46
10261;BME280;5175;42.606;23.388;2023-09-12T06:11:55;94061.03;;;15.94;85.49
10261;BME280;5175;42.606;23.388;2023-09-12T06:14:22;94044.25;;;15.97;86.51
10261;BME280;5175;42.606;23.388;2023-09-12T06:16:49;94059.63;;;16.19;85.38
10261;BME280;5175;42.606;23.388;2023-09-12T06:19:16;94064.09;;;16.46;83.64
10261;BME280;5175;42.606;23.388;2023-09-12T06:21:46;94058.34;;;16.61;83.20
10261;BME280;5175;42.606;23.388;2023-09-12T06:24:15;94061.75;;;16.75;81.53
10261;BME280;5175;42.606;23.388;2023-09-12T06:26:42;94052.28;;;16.86;81.15
10261;BME280;5175;42.606;23.388;2023-09-12T06:29:09;94064.25;;;17.02;82.54
10261;BME280;5175;42.606;23.388;2023-09-12T06:31:36;94072.13;;;17.29;80.57
10261;BME280;5175;42.606;23.388;2023-09-12T06:34:03;94068.19;;;17.44;80.01
10261;BME280;5175;42.606;23.388;2023-09-12T06:36:29;94074.78;;;17.60;78.34
10261;BME280;5175;42.606;23.388;2023-09-12T06:38:57;94069.72;;;17.76;78.76
10261;BME280;5175;42.606;23.388;2023-09-12T06:41:24;94083.41;;;17.96;77.46
10261;BME280;5175;42.606;23.388;2023-09-12T06:43:51;94080.50;;;17.76;79.63
10261;BME280;5175;42.606;23.388;2023-09-12T06:46:18;94077.84;;;18.01;78.61
10261;BME280;5175;42.606;23.388;2023-09-12T06:48:45;94077.50;;;18.29;77.70
10261;BME280;5175;42.606;23.388;2023-09-12T06:51:12;94086.09;;;18.39;75.63
10261;BME280;5175;42.606;23.388;2023-09-12T06:53:38;94087.22;;;18.64;75.66
10261;BME280;5175;42.606;23.388;2023-09-12T06:56:07;94077.69;;;18.58;74.15
10261;BME280;5175;42.606;23.388;2023-09-12T06:58:34;94091.50;;;18.73;73.39
10261;BME280;5175;42.606;23.388;2023-09-12T07:01:04;94084.13;;;18.91;72.09
10261;BME280;5175;42.606;23.388;2023-09-12T07:03:31;94089.00;;;19.15;73.55
10261;BME280;5175;42.606;23.388;2023-09-12T07:05:58;94083.53;;;19.23;69.84
10261;BME280;5175;42.606;23.388;2023-09-12T07:08:25;94097.09;;;19.61;68.69
10261;BME280;5175;42.606;23.388;2023-09-12T07:10:51;94092.41;;;19.70;66.40
10261;BME280;5175;42.606;23.388;2023-09-12T07:13:21;94096.25;;;19.69;66.02
10261;BME280;5175;42.606;23.388;2023-09-12T07:15:48;94089.66;;;19.79;65.54
10261;BME280;5175;42.606;23.388;2023-09-12T07:18:14;94095.72;;;20.05;64.08
10261;BME280;5175;42.606;23.388;2023-09-12T07:20:41;94097.97;;;20.24;63.79
10261;BME280;5175;42.606;23.388;2023-09-12T07:23:08;94100.63;;;20.32;60.85
10261;BME280;5175;42.606;23.388;2023-09-12T07:25:38;94089.97;;;20.48;60.98
10261;BME280;5175;42.606;23.388;2023-09-12T07:28:06;94099.50;;;20.54;59.51
10261;BME280;5175;42.606;23.388;2023-09-12T07:30:34;94095.19;;;20.53;60.48
10261;BME280;5175;42.606;23.388;2023-09-12T07:33:03;94098.16;;;20.60;58.96
10261;BME280;5175;42.606;23.388;2023-09-12T07:35:29;94102.50;;;20.73;59.32
10261;BME280;5175;42.606;23.388;2023-09-12T07:37:56;94097.22;;;20.77;58.58
10261;BME280;5175;42.606;23.388;2023-09-12T07:40:23;94101.78;;;20.97;57.62
10261;BME280;5175;42.606;23.388;2023-09-12T07:42:50;94096.19;;;21.14;56.50
10261;BME280;5175;42.606;23.388;2023-09-12T07:45:16;94102.94;;;21.41;55.67
10261;BME280;5175;42.606;23.388;2023-09-12T07:47:45;94093.63;;;21.42;55.24
10261;BME280;5175;42.606;23.388;2023-09-12T07:50:12;94096.94;;;21.59;55.08
10261;BME280;5175;42.606;23.388;2023-09-12T07:52:38;94096.25;;;21.74;54.28
10261;BME280;5175;42.606;23.388;2023-09-12T07:55:07;94100.91;;;21.86;53.41
10261;BME280;5175;42.606;23.388;2023-09-12T07:57:34;94092.97;;;22.05;52.10
10261;BME280;5175;42.606;23.388;2023-09-12T08:00:03;94091.34;;;22.16;51.21
10261;BME280;5175;42.606;23.388;2023-09-12T08:02:32;94089.88;;;22.19;51.27
10261;BME280;5175;42.606;23.388;2023-09-12T08:05:00;94093.03;;;22.33;52.40
10261;BME280;5175;42.606;23.388;2023-09-12T08:07:27;94090.44;;;22.36;51.42
10261;BME280;5175;42.606;23.388;2023-09-12T08:09:55;94096.25;;;22.51;50.73
10261;BME280;5175;42.606;23.388;2023-09-12T08:12:23;94093.66;;;22.54;50.73
10261;BME280;5175;42.606;23.388;2023-09-12T08:14:50;94089.31;;;22.65;50.80
10261;BME280;5175;42.606;23.388;2023-09-12T08:17:17;94104.38;;;22.75;49.30
10261;BME280;5175;42.606;23.388;2023-09-12T08:19:44;94097.19;;;22.82;48.69
10261;BME280;5175;42.606;23.388;2023-09-12T08:22:13;94092.78;;;23.05;47.13
10261;BME280;5175;42.606;23.388;2023-09-12T08:24:39;94108.16;;;23.29;46.94
10261;BME280;5175;42.606;23.388;2023-09-12T08:27:07;94109.03;;;23.18;46.17
10261;BME280;5175;42.606;23.388;2023-09-12T08:29:34;94099.56;;;23.27;46.29
10261;BME280;5175;42.606;23.388;2023-09-12T08:32:01;94105.75;;;23.55;46.35
10261;BME280;5175;42.606;23.388;2023-09-12T08:34:28;94094.69;;;23.64;46.04
10261;BME280;5175;42.606;23.388;2023-09-12T08:36:55;94096.78;;;23.71;45.27
10261;BME280;5175;42.606;23.388;2023-09-12T08:39:25;94095.91;;;23.66;44.66
10261;BME280;5175;42.606;23.388;2023-09-12T08:41:52;94098.38;;;23.87;44.50
10261;BME280;5175;42.606;23.388;2023-09-12T08:44:20;94088.41;;;23.95;44.51
10261;BME280;5175;42.606;23.388;2023-09-12T08:46:47;94084.31;;;23.85;43.64
10261;BME280;5175;42.606;23.388;2023-09-12T08:49:14;94081.47;;;24.13;45.16
10261;BME280;5175;42.606;23.388;2023-09-12T08:51:41;94087.44;;;24.38;43.77
10261;BME280;5175;42.606;23.388;2023-09-12T08:54:08;94082.22;;;24.48;42.21
10261;BME280;5175;42.606;23.388;2023-09-12T08:56:40;94076.34;;;24.46;42.30
10261;BME280;5175;42.606;23.388;2023-09-12T08:59:08;94081.56;;;24.74;41.85
10261;BME280;5175;42.606;23.388;2023-09-12T09:01:36;94085.28;;;24.81;41.83
10261;BME280;5175;42.606;23.388;2023-09-12T09:04:05;94082.47;;;24.97;41.82
10261;BME280;5175;42.606;23.388;2023-09-12T09:06:32;94092.00;;;25.07;41.00
10261;BME280;5175;42.606;23.388;2023-09-12T09:09:04;94088.91;;;25.08;41.04
10261;BME280;5175;42.606;23.388;2023-09-12T09:11:31;94089.97;;;25.23;41.23
10261;BME280;5175;42.606;23.388;2023-09-12T09:14:00;94086.69;;;25.36;41.36
10261;BME280;5175;42.606;23.388;2023-09-12T09:16:28;94084.47;;;25.65;40.62
10261;BME280;5175;42.606;23.388;2023-09-12T09:18:56;94084.09;;;25.43;39.64
10261;BME280;5175;42.606;23.388;2023-09-12T09:21:25;94083.91;;;25.33;39.83
10261;BME280;5175;42.606;23.388;2023-09-12T09:23:53;94082.06;;;25.40;40.43
10261;BME280;5175;42.606;23.388;2023-09-12T09:26:20;94075.63;;;25.48;39.46
10261;BME280;5175;42.606;23.388;2023-09-12T09:29:03;94064.97;;;25.43;39.34
10261;BME280;5175;42.606;23.388;2023-09-12T09:31:30;94078.88;;;25.80;38.52
10261;BME280;5175;42.606;23.388;2023-09-12T09:33:58;94074.16;;;25.77;38.16
10261;BME280;5175;42.606;23.388;2023-09-12T09:36:25;94073.03;;;25.82;38.28
10261;BME280;5175;42.606;23.388;2023-09-12T09:38:52;94071.94;;;25.86;38.43
10261;BME280;5175;42.606;23.388;2023-09-12T09:41:20;94070.78;;;25.87;37.44
10261;BME280;5175;42.606;23.388;2023-09-12T09:43:49;94058.06;;;25.72;38.05
10261;BME280;5175;42.606;23.388;2023-09-12T09:46:17;94051.97;;;25.82;37.55
10261;BME280;5175;42.606;23.388;2023-09-12T09:48:49;94068.09;;;26.14;38.06
10261;BME280;5175;42.606;23.388;2023-09-12T09:51:16;94079.38;;;26.12;36.89
10261;BME280;5175;42.606;23.388;2023-09-12T09:53:43;94072.63;;;26.32;36.34
10261;BME280;5175;42.606;23.388;2023-09-12T09:56:10;94068.72;;;26.59;36.84
10261;BME280;5175;42.606;23.388;2023-09-12T09:58:45;94064.16;;;26.41;36.88
10261;BME280;5175;42.606;23.388;2023-09-12T10:01:14;94061.81;;;26.39;37.88
10261;BME280;5175;42.606;23.388;2023-09-12T10:03:45;94064.16;;;26.70;36.16
10261;BME280;5175;42.606;23.388;2023-09-12T10:06:13;94062.53;;;26.66;34.36
10261;BME280;5175;42.606;23.388;2023-09-12T10:08:42;94064.56;;;27.02;36.13
10261;BME280;5175;42.606;23.388;2023-09-12T10:11:10;94063.25;;;27.26;35.89
10261;BME280;5175;42.606;23.388;2023-09-12T10:13:37;94053.88;;;27.30;35.78
10261;BME280;5175;42.606;23.388;2023-09-12T10:16:07;94055.81;;;27.26;34.95
10261;BME280;5175;42.606;23.388;2023-09-12T10:18:52;94054.28;;;27.29;34.61
10261;BME280;5175;42.606;23.388;2023-09-12T10:21:28;94052.47;;;27.07;34.69
10261;BME280;5175;42.606;23.388;2023-09-12T10:23:56;94045.56;;;27.20;34.51
10261;BME280;5175;42.606;23.388;2023-09-12T10:26:25;94030.34;;;27.26;35.27
10261;BME280;5175;42.606;23.388;2023-09-12T10:28:52;94050.00;;;27.35;35.09
10261;BME280;5175;42.606;23.388;2023-09-12T10:31:21;94038.63;;;27.33;36.26
10261;BME280;5175;42.606;23.388;2023-09-12T10:33:50;94032.69;;;27.64;35.44
10261;BME280;5175;42.606;23.388;2023-09-12T10:36:18;94047.13;;;27.58;35.78
10261;BME280;5175;42.606;23.388;2023-09-12T10:38:48;94049.09;;;27.61;35.41
10261;BME280;5175;42.606;23.388;2023-09-12T10:41:15;94038.22;;;27.68;36.74
10261;BME280;5175;42.606;23.388;2023-09-12T10:43:43;94035.59;;;27.89;35.17
10261;BME280;5175;42.606;23.388;2023-09-12T10:46:12;94038.28;;;27.78;34.80
10261;BME280;5175;42.606;23.388;2023-09-12T10:48:39;94031.09;;;28.11;36.69
10261;BME280;5175;42.606;23.388;2023-09-12T10:51:07;94020.59;;;28.27;36.31
10261;BME280;5175;42.606;23.388;2023-09-12T10:53:35;94029.44;;;27.99;36.05
10261;BME280;5175;42.606;23.388;2023-09-12T10:56:15;94023.00;;;28.39;34.74
10261;BME280;5175;42.606;23.388;2023-09-12T10:59:13;94015.56;;;28.43;34.37
10261;BME280;5175;42.606;23.388;2023-09-12T11:01:41;94008.53;;;28.42;34.25
10261;BME280;5175;42.606;23.388;2023-09-12T11:04:32;94010.09;;;28.39;34.89
10261;BME280;5175;42.606;23.388;2023-09-12T11:07:30;94015.06;;;28.20;36.37
10261;BME280;5175;42.606;23.388;2023-09-12T11:10:20;94009.47;;;28.71;36.45
10261;BME280;5175;42.606;23.388;2023-09-12T11:12:49;93998.88;;;28.80;33.38
10261;BME280;5175;42.606;23.388;2023-09-12T11:15:16;94007.94;;;28.84;32.89
10261;BME280;5175;42.606;23.388;2023-09-12T11:17:44;93999.91;;;28.50;36.32
10261;BME280;5175;42.606;23.388;2023-09-12T11:20:12;94000.13;;;29.00;35.54
10261;BME280;5175;42.606;23.388;2023-09-12T11:22:40;94002.97;;;29.35;33.37
10261;BME280;5175;42.606;23.388;2023-09-12T11:25:17;94003.78;;;29.43;34.98
10261;BME280;5175;42.606;23.388;2023-09-12T11:27:46;94002.59;;;29.47;32.68
10261;BME280;5175;42.606;23.388;2023-09-12T11:30:30;94000.22;;;29.53;33.21
10261;BME280;5175;42.606;23.388;2023-09-12T11:32:57;93998.25;;;29.53;31.87
10261;BME280;5175;42.606;23.388;2023-09-12T11:35:26;93993.16;;;29.69;33.54
10261;BME280;5175;42.606;23.388;2023-09-12T11:37:54;93993.94;;;29.49;31.32
10261;BME280;5175;42.606;23.388;2023-09-12T11:40:23;93990.00;;;29.53;31.61
10261;BME280;5175;42.606;23.388;2023-09-12T11:42:51;93986.06;;;29.37;31.25
10261;BME280;5175;42.606;23.388;2023-09-12T11:45:19;93972.72;;;29.46;35.59
10261;BME280;5175;42.606;23.388;2023-09-12T11:47:48;93979.78;;;29.61;31.87
10261;BME280;5175;42.606;23.388;2023-09-12T11:50:30;93971.16;;;29.41;29.99
10261;BME280;5175;42.606;23.388;2023-09-12T11:53:01;93979.41;;;29.27;30.99
10261;BME280;5175;42.606;23.388;2023-09-12T11:55:31;93969.94;;;29.07;29.81
10261;BME280;5175;42.606;23.388;2023-09-12T11:57:58;93975.88;;;29.37;32.47
10261;BME280;5175;42.606;23.388;2023-09-12T12:00:25;93978.22;;;29.25;30.66
10261;BME280;5175;42.606;23.388;2023-09-12T12:02:54;93975.09;;;29.47;31.35
10261;BME280;5175;42.606;23.388;2023-09-12T12:05:21;93966.03;;;29.57;33.42
10261;BME280;5175;42.606;23.388;2023-09-12T12:07:49;93974.28;;;29.82;31.92
10261;BME280;5175;42.606;23.388;2023-09-12T12:10:16;93966.78;;;30.07;31.62
10261;BME280;5175;42.606;23.388;2023-09-12T12:12:44;93972.31;;;29.97;29.73
10261;BME280;5175;42.606;23.388;2023-09-12T12:15:11;93964.44;;;30.09;33.71
10261;BME280;5175;42.606;23.388;2023-09-12T12:17:38;93970.69;;;30.13;32.38
10261;BME280;5175;42.606;23.388;2023-09-12T12:20:09;93969.94;;;30.09;32.11
10261;BME280;5175;42.606;23.388;2023-09-12T12:22:37;93968.69;;;30.28;29.71
10261;BME280;5175;42.606;23.388;2023-09-12T12:25:07;93964.31;;;30.52;34.51
10261;BME280;5175;42.606;23.388;2023-09-12T12:27:36;93965.81;;;30.70;32.80
10261;BME280;5175;42.606;23.388;2023-09-12T12:30:04;93968.97;;;30.65;29.32
10261;BME280;5175;42.606;23.388;2023-09-12T12:32:31;93962.81;;;30.19;29.35
10261;BME280;5175;42.606;23.388;2023-09-12T12:34:58;93964.84;;;29.90;29.90
10261;BME280;5175;42.606;23.388;2023-09-12T12:37:29;93961.28;;;30.14;30.73
10261;BME280;5175;42.606;23.388;2023-09-12T12:39:58;93961.22;;;30.35;30.85
10261;BME280;5175;42.606;23.388;2023-09-12T12:42:25;93923.94;;;30.06;31.35
10261;BME280;5175;42.606;23.388;2023-09-12T12:44:53;93964.75;;;30.43;29.31
10261;BME280;5175;42.606;23.388;2023-09-12T12:47:21;93968.56;;;30.74;30.81
10261;BME280;5175;42.606;23.388;2023-09-12T12:49:50;93940.19;;;30.77;30.96
10261;BME280;5175;42.606;23.388;2023-09-12T12:52:22;93957.44;;;30.95;31.26
10261;BME280;5175;42.606;23.388;2023-09-12T12:54:50;93951.72;;;31.23;32.17
10261;BME280;5175;42.606;23.388;2023-09-12T12:57:19;93959.06;;;31.44;28.83
10261;BME280;5175;42.606;23.388;2023-09-12T12:59:47;93956.78;;;31.35;28.43
10261;BME280;5175;42.606;23.388;2023-09-12T13:02:14;93951.72;;;31.27;29.23
10261;BME280;5175;42.606;23.388;2023-09-12T13:04:41;93944.22;;;31.27;31.54